Lakeview, Michigan
Current Conditions -  °F | °C
As of 4:34 PM on Thursday 18 Dec 2014 (Local Time) from KRQB Reporting Station
Overcast Overcast  
Wind Chill: 23°   Ceiling: 1300
Heat Index: 28°   Visibility: 10mi
Dew Point: 26°   Wind: 5mph
Humidity: 90%   Direction: 280°W
Pressure: 30.16"   Gusts: NA
Location:  43.45°N, 85.27°W
Report Text: KRQB 182134Z AUTO 28004KT 10SM OVC013 M02/M03 A3016 RMK AO2 T10201034
Loading
Personal Weather Stations






























Interactive Weather Map New forecast layout! Learn more

10-Day Weather Forecast

Advertisements
Track Severe Weather on mobile